sensor_id;sensor_type;location;lat;lon;timestamp;P1;durP1;ratioP1;P2;durP2;ratioP2
59950;SDS011;45812;53.540;9.774;2024-01-11T00:01:09;21.50;;;9.35;;
59950;SDS011;45812;53.540;9.774;2024-01-11T00:03:35;24.27;;;10.25;;
59950;SDS011;45812;53.540;9.774;2024-01-11T00:06:00;28.30;;;10.48;;
59950;SDS011;45812;53.540;9.774;2024-01-11T00:08:26;28.50;;;10.82;;
59950;SDS011;45812;53.540;9.774;2024-01-11T00:10:51;27.67;;;11.15;;
59950;SDS011;45812;53.540;9.774;2024-01-11T00:13:16;25.02;;;10.05;;
59950;SDS011;45812;53.540;9.774;2024-01-11T00:15:41;24.92;;;10.15;;
59950;SDS011;45812;53.540;9.774;2024-01-11T00:18:07;24.67;;;9.77;;
59950;SDS011;45812;53.540;9.774;2024-01-11T00:20:32;26.17;;;9.80;;
59950;SDS011;45812;53.540;9.774;2024-01-11T00:22:57;25.65;;;9.02;;
59950;SDS011;45812;53.540;9.774;2024-01-11T00:25:22;22.25;;;9.48;;
59950;SDS011;45812;53.540;9.774;2024-01-11T00:27:48;23.88;;;10.00;;
59950;SDS011;45812;53.540;9.774;2024-01-11T00:30:13;24.98;;;10.13;;
59950;SDS011;45812;53.540;9.774;2024-01-11T00:32:39;21.58;;;9.18;;
59950;SDS011;45812;53.540;9.774;2024-01-11T00:35:04;23.95;;;10.13;;
59950;SDS011;45812;53.540;9.774;2024-01-11T00:37:30;25.40;;;9.70;;
59950;SDS011;45812;53.540;9.774;2024-01-11T00:39:55;23.55;;;9.52;;
59950;SDS011;45812;53.540;9.774;2024-01-11T00:42:20;24.38;;;10.18;;
59950;SDS011;45812;53.540;9.774;2024-01-11T00:44:46;23.83;;;10.10;;
59950;SDS011;45812;53.540;9.774;2024-01-11T00:47:11;24.92;;;10.63;;
59950;SDS011;45812;53.540;9.774;2024-01-11T00:49:36;25.55;;;11.27;;
59950;SDS011;45812;53.540;9.774;2024-01-11T00:52:01;26.85;;;10.48;;
59950;SDS011;45812;53.540;9.774;2024-01-11T00:54:27;29.65;;;11.82;;
59950;SDS011;45812;53.540;9.774;2024-01-11T00:56:52;20.98;;;10.18;;
59950;SDS011;45812;53.540;9.774;2024-01-11T00:59:18;22.13;;;9.30;;
59950;SDS011;45812;53.540;9.774;2024-01-11T01:01:47;24.38;;;9.85;;
59950;SDS011;45812;53.540;9.774;2024-01-11T01:04:13;23.95;;;8.77;;
59950;SDS011;45812;53.540;9.774;2024-01-11T01:06:38;19.25;;;8.20;;
59950;SDS011;45812;53.540;9.774;2024-01-11T01:09:03;25.30;;;9.20;;
59950;SDS011;45812;53.540;9.774;2024-01-11T01:11:29;22.80;;;9.75;;
59950;SDS011;45812;53.540;9.774;2024-01-11T01:13:54;18.75;;;8.30;;
59950;SDS011;45812;53.540;9.774;2024-01-11T01:16:19;25.40;;;10.48;;
59950;SDS011;45812;53.540;9.774;2024-01-11T01:18:45;22.85;;;10.52;;
59950;SDS011;45812;53.540;9.774;2024-01-11T01:21:10;23.70;;;9.70;;
59950;SDS011;45812;53.540;9.774;2024-01-11T01:23:35;25.98;;;11.18;;
59950;SDS011;45812;53.540;9.774;2024-01-11T01:26:00;25.23;;;10.00;;
59950;SDS011;45812;53.540;9.774;2024-01-11T01:28:26;21.88;;;9.23;;
59950;SDS011;45812;53.540;9.774;2024-01-11T01:30:51;20.02;;;8.88;;
59950;SDS011;45812;53.540;9.774;2024-01-11T01:33:16;22.95;;;10.25;;
59950;SDS011;45812;53.540;9.774;2024-01-11T01:35:42;22.63;;;10.20;;
59950;SDS011;45812;53.540;9.774;2024-01-11T01:38:07;24.75;;;10.32;;
59950;SDS011;45812;53.540;9.774;2024-01-11T01:40:33;22.85;;;8.88;;
59950;SDS011;45812;53.540;9.774;2024-01-11T01:42:58;23.58;;;9.48;;
59950;SDS011;45812;53.540;9.774;2024-01-11T01:45:27;25.90;;;10.35;;
59950;SDS011;45812;53.540;9.774;2024-01-11T01:47:52;26.10;;;10.45;;
59950;SDS011;45812;53.540;9.774;2024-01-11T01:50:18;23.85;;;9.73;;
59950;SDS011;45812;53.540;9.774;2024-01-11T01:52:45;22.58;;;9.10;;
59950;SDS011;45812;53.540;9.774;2024-01-11T01:55:11;24.08;;;9.50;;
59950;SDS011;45812;53.540;9.774;2024-01-11T01:57:39;27.85;;;11.05;;
59950;SDS011;45812;53.540;9.774;2024-01-11T02:00:06;25.70;;;9.63;;
59950;SDS011;45812;53.540;9.774;2024-01-11T02:02:35;26.35;;;10.35;;
59950;SDS011;45812;53.540;9.774;2024-01-11T02:05:01;24.02;;;9.65;;
59950;SDS011;45812;53.540;9.774;2024-01-11T02:07:26;25.48;;;8.93;;
59950;SDS011;45812;53.540;9.774;2024-01-11T02:09:52;26.13;;;11.55;;
59950;SDS011;45812;53.540;9.774;2024-01-11T02:12:17;25.10;;;9.75;;
59950;SDS011;45812;53.540;9.774;2024-01-11T02:14:43;27.10;;;11.75;;
59950;SDS011;45812;53.540;9.774;2024-01-11T02:17:09;25.90;;;10.68;;
59950;SDS011;45812;53.540;9.774;2024-01-11T02:19:34;29.25;;;10.90;;
59950;SDS011;45812;53.540;9.774;2024-01-11T02:22:00;27.65;;;11.38;;
59950;SDS011;45812;53.540;9.774;2024-01-11T02:24:27;29.77;;;11.00;;
59950;SDS011;45812;53.540;9.774;2024-01-11T02:26:59;27.38;;;10.65;;
59950;SDS011;45812;53.540;9.774;2024-01-11T02:29:26;29.40;;;11.77;;
59950;SDS011;45812;53.540;9.774;2024-01-11T02:31:51;29.35;;;12.02;;
59950;SDS011;45812;53.540;9.774;2024-01-11T02:34:17;29.45;;;11.88;;
59950;SDS011;45812;53.540;9.774;2024-01-11T02:36:42;29.38;;;11.35;;
59950;SDS011;45812;53.540;9.774;2024-01-11T02:39:08;25.83;;;11.48;;
59950;SDS011;45812;53.540;9.774;2024-01-11T02:41:33;27.80;;;12.07;;
59950;SDS011;45812;53.540;9.774;2024-01-11T02:44:00;29.38;;;10.85;;
59950;SDS011;45812;53.540;9.774;2024-01-11T02:46:26;30.92;;;11.82;;
59950;SDS011;45812;53.540;9.774;2024-01-11T02:48:51;32.80;;;12.13;;
59950;SDS011;45812;53.540;9.774;2024-01-11T02:51:17;29.30;;;11.60;;
59950;SDS011;45812;53.540;9.774;2024-01-11T02:53:42;31.95;;;14.20;;
59950;SDS011;45812;53.540;9.774;2024-01-11T02:56:08;33.00;;;13.13;;
59950;SDS011;45812;53.540;9.774;2024-01-11T02:58:33;32.63;;;12.70;;
59950;SDS011;45812;53.540;9.774;2024-01-11T03:00:58;34.03;;;13.23;;
59950;SDS011;45812;53.540;9.774;2024-01-11T03:03:23;33.15;;;13.52;;
59950;SDS011;45812;53.540;9.774;2024-01-11T03:05:49;33.38;;;13.38;;
59950;SDS011;45812;53.540;9.774;2024-01-11T03:08:14;34.55;;;14.38;;
59950;SDS011;45812;53.540;9.774;2024-01-11T03:10:39;36.85;;;13.27;;
59950;SDS011;45812;53.540;9.774;2024-01-11T03:13:05;32.30;;;12.00;;
59950;SDS011;45812;53.540;9.774;2024-01-11T03:15:32;33.40;;;13.32;;
59950;SDS011;45812;53.540;9.774;2024-01-11T03:17:57;28.40;;;11.55;;
59950;SDS011;45812;53.540;9.774;2024-01-11T03:20:22;31.83;;;12.27;;
59950;SDS011;45812;53.540;9.774;2024-01-11T03:22:50;35.28;;;12.20;;
59950;SDS011;45812;53.540;9.774;2024-01-11T03:25:16;31.05;;;12.50;;
59950;SDS011;45812;53.540;9.774;2024-01-11T03:27:41;35.63;;;12.73;;
59950;SDS011;45812;53.540;9.774;2024-01-11T03:30:07;32.38;;;11.95;;
59950;SDS011;45812;53.540;9.774;2024-01-11T03:32:32;35.63;;;13.65;;
59950;SDS011;45812;53.540;9.774;2024-01-11T03:34:57;32.30;;;12.77;;
59950;SDS011;45812;53.540;9.774;2024-01-11T03:37:23;32.08;;;12.57;;
59950;SDS011;45812;53.540;9.774;2024-01-11T03:39:48;36.80;;;14.77;;
59950;SDS011;45812;53.540;9.774;2024-01-11T03:42:13;39.45;;;14.20;;
59950;SDS011;45812;53.540;9.774;2024-01-11T03:44:38;37.08;;;14.18;;
59950;SDS011;45812;53.540;9.774;2024-01-11T03:47:04;38.28;;;14.48;;
59950;SDS011;45812;53.540;9.774;2024-01-11T03:49:29;37.28;;;13.88;;
59950;SDS011;45812;53.540;9.774;2024-01-11T03:51:54;39.78;;;14.45;;
59950;SDS011;45812;53.540;9.774;2024-01-11T03:54:19;36.55;;;12.95;;
59950;SDS011;45812;53.540;9.774;2024-01-11T03:56:45;39.10;;;15.02;;
59950;SDS011;45812;53.540;9.774;2024-01-11T03:59:10;40.00;;;15.07;;
59950;SDS011;45812;53.540;9.774;2024-01-11T04:01:39;40.20;;;14.45;;
59950;SDS011;45812;53.540;9.774;2024-01-11T04:04:05;39.00;;;15.27;;
59950;SDS011;45812;53.540;9.774;2024-01-11T04:06:30;30.48;;;12.27;;
59950;SDS011;45812;53.540;9.774;2024-01-11T04:08:56;31.27;;;13.40;;
59950;SDS011;45812;53.540;9.774;2024-01-11T04:11:21;27.35;;;11.07;;
59950;SDS011;45812;53.540;9.774;2024-01-11T04:13:47;29.58;;;12.07;;
59950;SDS011;45812;53.540;9.774;2024-01-11T04:16:12;28.73;;;11.63;;
59950;SDS011;45812;53.540;9.774;2024-01-11T04:18:37;30.05;;;12.82;;
59950;SDS011;45812;53.540;9.774;2024-01-11T04:21:03;27.52;;;11.68;;
59950;SDS011;45812;53.540;9.774;2024-01-11T04:23:28;33.08;;;13.38;;
59950;SDS011;45812;53.540;9.774;2024-01-11T04:25:54;33.00;;;13.02;;
59950;SDS011;45812;53.540;9.774;2024-01-11T04:28:19;35.42;;;13.88;;
59950;SDS011;45812;53.540;9.774;2024-01-11T04:30:45;37.35;;;14.15;;
59950;SDS011;45812;53.540;9.774;2024-01-11T04:33:10;35.90;;;13.73;;
59950;SDS011;45812;53.540;9.774;2024-01-11T04:35:35;35.88;;;14.07;;
59950;SDS011;45812;53.540;9.774;2024-01-11T04:38:01;41.63;;;16.63;;
59950;SDS011;45812;53.540;9.774;2024-01-11T04:40:26;33.70;;;13.68;;
59950;SDS011;45812;53.540;9.774;2024-01-11T04:42:52;31.60;;;12.27;;
59950;SDS011;45812;53.540;9.774;2024-01-11T04:45:17;32.88;;;13.00;;
59950;SDS011;45812;53.540;9.774;2024-01-11T04:47:42;33.63;;;13.75;;
59950;SDS011;45812;53.540;9.774;2024-01-11T04:50:08;34.05;;;12.95;;
59950;SDS011;45812;53.540;9.774;2024-01-11T04:52:33;28.75;;;11.05;;
59950;SDS011;45812;53.540;9.774;2024-01-11T04:54:58;26.95;;;11.05;;
59950;SDS011;45812;53.540;9.774;2024-01-11T04:57:23;30.30;;;11.43;;
59950;SDS011;45812;53.540;9.774;2024-01-11T04:59:49;26.13;;;9.30;;
59950;SDS011;45812;53.540;9.774;2024-01-11T05:02:14;26.95;;;10.00;;
59950;SDS011;45812;53.540;9.774;2024-01-11T05:04:39;24.67;;;8.52;;
59950;SDS011;45812;53.540;9.774;2024-01-11T05:07:04;22.77;;;8.02;;
59950;SDS011;45812;53.540;9.774;2024-01-11T05:09:30;22.08;;;8.80;;
59950;SDS011;45812;53.540;9.774;2024-01-11T05:11:55;26.33;;;9.23;;
59950;SDS011;45812;53.540;9.774;2024-01-11T05:14:20;26.98;;;7.28;;
59950;SDS011;45812;53.540;9.774;2024-01-11T05:16:45;19.92;;;6.82;;
59950;SDS011;45812;53.540;9.774;2024-01-11T05:19:11;20.05;;;7.43;;
59950;SDS011;45812;53.540;9.774;2024-01-11T05:21:37;20.90;;;7.88;;
59950;SDS011;45812;53.540;9.774;2024-01-11T05:24:02;20.75;;;7.88;;
59950;SDS011;45812;53.540;9.774;2024-01-11T05:26:28;18.30;;;6.82;;
59950;SDS011;45812;53.540;9.774;2024-01-11T05:28:53;16.35;;;6.03;;
59950;SDS011;45812;53.540;9.774;2024-01-11T05:31:18;16.20;;;6.47;;
59950;SDS011;45812;53.540;9.774;2024-01-11T05:33:44;15.40;;;5.68;;
59950;SDS011;45812;53.540;9.774;2024-01-11T05:36:10;13.77;;;6.05;;
59950;SDS011;45812;53.540;9.774;2024-01-11T05:38:35;15.18;;;6.30;;
59950;SDS011;45812;53.540;9.774;2024-01-11T05:41:01;18.45;;;7.28;;
59950;SDS011;45812;53.540;9.774;2024-01-11T05:43:27;15.07;;;6.43;;
59950;SDS011;45812;53.540;9.774;2024-01-11T05:45:52;17.13;;;6.90;;
59950;SDS011;45812;53.540;9.774;2024-01-11T05:48:17;16.33;;;5.78;;
59950;SDS011;45812;53.540;9.774;2024-01-11T05:50:43;16.23;;;5.53;;
59950;SDS011;45812;53.540;9.774;2024-01-11T05:53:09;12.93;;;5.13;;
59950;SDS011;45812;53.540;9.774;2024-01-11T05:55:34;14.18;;;5.85;;
59950;SDS011;45812;53.540;9.774;2024-01-11T05:58:00;12.48;;;5.40;;
59950;SDS011;45812;53.540;9.774;2024-01-11T06:00:26;13.77;;;5.03;;
59950;SDS011;45812;53.540;9.774;2024-01-11T06:02:51;12.40;;;5.20;;
59950;SDS011;45812;53.540;9.774;2024-01-11T06:05:16;15.50;;;6.00;;
59950;SDS011;45812;53.540;9.774;2024-01-11T06:07:42;17.17;;;5.70;;
59950;SDS011;45812;53.540;9.774;2024-01-11T06:10:07;10.15;;;4.60;;
59950;SDS011;45812;53.540;9.774;2024-01-11T06:12:34;10.70;;;4.68;;
59950;SDS011;45812;53.540;9.774;2024-01-11T06:15:00;11.63;;;4.80;;
59950;SDS011;45812;53.540;9.774;2024-01-11T06:17:25;13.98;;;4.60;;
59950;SDS011;45812;53.540;9.774;2024-01-11T06:19:51;13.35;;;4.57;;
59950;SDS011;45812;53.540;9.774;2024-01-11T06:22:16;14.05;;;4.97;;
59950;SDS011;45812;53.540;9.774;2024-01-11T06:24:41;8.43;;;3.58;;
59950;SDS011;45812;53.540;9.774;2024-01-11T06:27:07;9.75;;;3.58;;
59950;SDS011;45812;53.540;9.774;2024-01-11T06:29:32;13.00;;;5.32;;
59950;SDS011;45812;53.540;9.774;2024-01-11T06:31:57;14.93;;;4.70;;
59950;SDS011;45812;53.540;9.774;2024-01-11T06:34:23;13.05;;;5.30;;
59950;SDS011;45812;53.540;9.774;2024-01-11T06:36:48;10.55;;;4.70;;
59950;SDS011;45812;53.540;9.774;2024-01-11T06:39:13;16.08;;;6.63;;
59950;SDS011;45812;53.540;9.774;2024-01-11T06:41:38;15.80;;;5.28;;
59950;SDS011;45812;53.540;9.774;2024-01-11T06:44:04;18.30;;;6.15;;
59950;SDS011;45812;53.540;9.774;2024-01-11T06:46:29;15.25;;;5.50;;
59950;SDS011;45812;53.540;9.774;2024-01-11T06:48:55;11.32;;;4.78;;
59950;SDS011;45812;53.540;9.774;2024-01-11T06:51:20;14.70;;;5.43;;
59950;SDS011;45812;53.540;9.774;2024-01-11T06:53:46;14.68;;;5.78;;
59950;SDS011;45812;53.540;9.774;2024-01-11T06:56:16;15.98;;;5.75;;
59950;SDS011;45812;53.540;9.774;2024-01-11T06:58:42;12.63;;;5.05;;
59950;SDS011;45812;53.540;9.774;2024-01-11T07:01:08;15.55;;;6.03;;
59950;SDS011;45812;53.540;9.774;2024-01-11T07:03:34;18.55;;;6.90;;
59950;SDS011;45812;53.540;9.774;2024-01-11T07:05:59;18.48;;;6.55;;
59950;SDS011;45812;53.540;9.774;2024-01-11T07:08:24;20.50;;;7.78;;
59950;SDS011;45812;53.540;9.774;2024-01-11T07:10:49;18.92;;;5.85;;
59950;SDS011;45812;53.540;9.774;2024-01-11T07:13:15;20.50;;;6.55;;
59950;SDS011;45812;53.540;9.774;2024-01-11T07:15:41;22.35;;;7.45;;
59950;SDS011;45812;53.540;9.774;2024-01-11T07:18:07;24.17;;;6.60;;
59950;SDS011;45812;53.540;9.774;2024-01-11T07:20:32;22.98;;;7.55;;
59950;SDS011;45812;53.540;9.774;2024-01-11T07:22:58;20.02;;;7.38;;
59950;SDS011;45812;53.540;9.774;2024-01-11T07:25:24;23.38;;;8.25;;
59950;SDS011;45812;53.540;9.774;2024-01-11T07:27:49;21.83;;;6.95;;
59950;SDS011;45812;53.540;9.774;2024-01-11T07:30:14;20.83;;;7.80;;
59950;SDS011;45812;53.540;9.774;2024-01-11T07:32:39;20.58;;;6.78;;
59950;SDS011;45812;53.540;9.774;2024-01-11T07:35:05;22.02;;;6.72;;
59950;SDS011;45812;53.540;9.774;2024-01-11T07:37:31;22.55;;;7.00;;
59950;SDS011;45812;53.540;9.774;2024-01-11T07:39:57;20.83;;;8.10;;
59950;SDS011;45812;53.540;9.774;2024-01-11T07:42:22;23.45;;;6.93;;
59950;SDS011;45812;53.540;9.774;2024-01-11T07:44:47;23.95;;;7.18;;
59950;SDS011;45812;53.540;9.774;2024-01-11T07:47:12;21.63;;;7.18;;
59950;SDS011;45812;53.540;9.774;2024-01-11T07:49:38;26.27;;;8.48;;
59950;SDS011;45812;53.540;9.774;2024-01-11T07:52:03;19.98;;;6.82;;
59950;SDS011;45812;53.540;9.774;2024-01-11T07:54:29;30.83;;;7.55;;
59950;SDS011;45812;53.540;9.774;2024-01-11T07:56:56;18.02;;;6.10;;
59950;SDS011;45812;53.540;9.774;2024-01-11T07:59:21;22.15;;;6.63;;
59950;SDS011;45812;53.540;9.774;2024-01-11T08:01:46;19.77;;;5.97;;
59950;SDS011;45812;53.540;9.774;2024-01-11T08:04:13;21.27;;;6.93;;
59950;SDS011;45812;53.540;9.774;2024-01-11T08:06:38;19.90;;;6.63;;
59950;SDS011;45812;53.540;9.774;2024-01-11T08:09:03;18.75;;;6.32;;
59950;SDS011;45812;53.540;9.774;2024-01-11T08:11:29;21.10;;;6.68;;
59950;SDS011;45812;53.540;9.774;2024-01-11T08:13:56;15.82;;;5.28;;
59950;SDS011;45812;53.540;9.774;2024-01-11T08:16:21;17.20;;;5.30;;
59950;SDS011;45812;53.540;9.774;2024-01-11T08:18:46;17.23;;;5.88;;
59950;SDS011;45812;53.540;9.774;2024-01-11T08:21:13;15.30;;;4.60;;
59950;SDS011;45812;53.540;9.774;2024-01-11T08:23:39;10.90;;;4.15;;
59950;SDS011;45812;53.540;9.774;2024-01-11T08:26:09;12.55;;;3.92;;
59950;SDS011;45812;53.540;9.774;2024-01-11T08:28:35;12.98;;;3.90;;
59950;SDS011;45812;53.540;9.774;2024-01-11T08:31:01;13.00;;;4.75;;
59950;SDS011;45812;53.540;9.774;2024-01-11T08:33:29;15.95;;;5.20;;
59950;SDS011;45812;53.540;9.774;2024-01-11T08:35:55;13.88;;;5.07;;
59950;SDS011;45812;53.540;9.774;2024-01-11T08:38:20;16.67;;;5.50;;
59950;SDS011;45812;53.540;9.774;2024-01-11T08:40:45;16.70;;;5.95;;
59950;SDS011;45812;53.540;9.774;2024-01-11T08:43:10;16.73;;;6.25;;
59950;SDS011;45812;53.540;9.774;2024-01-11T08:45:36;21.90;;;6.57;;
59950;SDS011;45812;53.540;9.774;2024-01-11T08:48:01;18.88;;;6.20;;
59950;SDS011;45812;53.540;9.774;2024-01-11T08:50:26;18.60;;;6.85;;
59950;SDS011;45812;53.540;9.774;2024-01-11T08:52:51;23.02;;;7.03;;
59950;SDS011;45812;53.540;9.774;2024-01-11T08:55:17;22.92;;;7.60;;
59950;SDS011;45812;53.540;9.774;2024-01-11T08:57:42;26.02;;;8.55;;
59950;SDS011;45812;53.540;9.774;2024-01-11T09:00:07;28.27;;;10.25;;
59950;SDS011;45812;53.540;9.774;2024-01-11T09:02:33;29.15;;;10.27;;
59950;SDS011;45812;53.540;9.774;2024-01-11T09:04:59;35.70;;;12.02;;
59950;SDS011;45812;53.540;9.774;2024-01-11T09:07:24;30.65;;;11.75;;
59950;SDS011;45812;53.540;9.774;2024-01-11T09:09:49;32.08;;;10.90;;
59950;SDS011;45812;53.540;9.774;2024-01-11T09:12:15;33.92;;;10.43;;
59950;SDS011;45812;53.540;9.774;2024-01-11T09:14:40;32.13;;;12.13;;
59950;SDS011;45812;53.540;9.774;2024-01-11T09:17:06;30.95;;;10.90;;
59950;SDS011;45812;53.540;9.774;2024-01-11T09:19:34;29.58;;;11.27;;
59950;SDS011;45812;53.540;9.774;2024-01-11T09:21:59;34.78;;;12.40;;
59950;SDS011;45812;53.540;9.774;2024-01-11T09:24:25;30.88;;;11.68;;
59950;SDS011;45812;53.540;9.774;2024-01-11T09:26:50;29.02;;;10.70;;
59950;SDS011;45812;53.540;9.774;2024-01-11T09:29:16;30.33;;;11.82;;
59950;SDS011;45812;53.540;9.774;2024-01-11T09:31:41;32.60;;;11.65;;
59950;SDS011;45812;53.540;9.774;2024-01-11T09:34:07;31.15;;;11.32;;
59950;SDS011;45812;53.540;9.774;2024-01-11T09:36:32;28.70;;;10.98;;
59950;SDS011;45812;53.540;9.774;2024-01-11T09:38:58;35.92;;;14.10;;
59950;SDS011;45812;53.540;9.774;2024-01-11T09:41:23;39.28;;;12.75;;
59950;SDS011;45812;53.540;9.774;2024-01-11T09:43:49;32.25;;;11.38;;
59950;SDS011;45812;53.540;9.774;2024-01-11T09:46:18;30.85;;;11.60;;
59950;SDS011;45812;53.540;9.774;2024-01-11T09:48:45;32.30;;;12.20;;
59950;SDS011;45812;53.540;9.774;2024-01-11T09:51:13;27.08;;;10.23;;
59950;SDS011;45812;53.540;9.774;2024-01-11T09:53:38;35.75;;;12.48;;
59950;SDS011;45812;53.540;9.774;2024-01-11T09:56:06;30.23;;;11.52;;
59950;SDS011;45812;53.540;9.774;2024-01-11T09:58:33;33.95;;;12.32;;
59950;SDS011;45812;53.540;9.774;2024-01-11T10:01:01;34.72;;;13.43;;
59950;SDS011;45812;53.540;9.774;2024-01-11T10:03:27;34.30;;;12.18;;
59950;SDS011;45812;53.540;9.774;2024-01-11T10:05:57;36.85;;;12.05;;
59950;SDS011;45812;53.540;9.774;2024-01-11T10:08:23;31.98;;;11.45;;
59950;SDS011;45812;53.540;9.774;2024-01-11T10:10:48;34.25;;;13.52;;
59950;SDS011;45812;53.540;9.774;2024-01-11T10:13:14;34.90;;;12.02;;
59950;SDS011;45812;53.540;9.774;2024-01-11T10:15:43;32.33;;;11.35;;
59950;SDS011;45812;53.540;9.774;2024-01-11T10:18:09;34.47;;;14.25;;
59950;SDS011;45812;53.540;9.774;2024-01-11T10:20:34;31.58;;;12.70;;
59950;SDS011;45812;53.540;9.774;2024-01-11T10:23:00;34.65;;;13.23;;
59950;SDS011;45812;53.540;9.774;2024-01-11T10:25:26;32.33;;;11.43;;
59950;SDS011;45812;53.540;9.774;2024-01-11T10:27:52;31.77;;;13.20;;
59950;SDS011;45812;53.540;9.774;2024-01-11T10:30:17;37.28;;;13.43;;
59950;SDS011;45812;53.540;9.774;2024-01-11T10:32:44;35.10;;;12.27;;
59950;SDS011;45812;53.540;9.774;2024-01-11T10:35:10;35.08;;;13.13;;
59950;SDS011;45812;53.540;9.774;2024-01-11T10:37:36;33.08;;;12.20;;
59950;SDS011;45812;53.540;9.774;2024-01-11T10:40:04;28.58;;;11.68;;
59950;SDS011;45812;53.540;9.774;2024-01-11T10:42:36;32.63;;;12.70;;
59950;SDS011;45812;53.540;9.774;2024-01-11T10:45:06;32.25;;;12.48;;
59950;SDS011;45812;53.540;9.774;2024-01-11T10:47:39;32.55;;;12.95;;
59950;SDS011;45812;53.540;9.774;2024-01-11T10:50:11;33.37;;;13.27;;
59950;SDS011;45812;53.540;9.774;2024-01-11T10:52:42;31.50;;;12.82;;
59950;SDS011;45812;53.540;9.774;2024-01-11T10:55:11;33.53;;;11.98;;
59950;SDS011;45812;53.540;9.774;2024-01-11T10:57:37;35.25;;;13.70;;
59950;SDS011;45812;53.540;9.774;2024-01-11T11:00:04;36.85;;;13.13;;
59950;SDS011;45812;53.540;9.774;2024-01-11T11:02:30;33.67;;;12.30;;
59950;SDS011;45812;53.540;9.774;2024-01-11T11:04:59;30.60;;;11.85;;
59950;SDS011;45812;53.540;9.774;2024-01-11T11:07:29;32.33;;;12.95;;
59950;SDS011;45812;53.540;9.774;2024-01-11T11:09:54;34.25;;;11.82;;
59950;SDS011;45812;53.540;9.774;2024-01-11T11:12:21;30.83;;;11.70;;
59950;SDS011;45812;53.540;9.774;2024-01-11T11:14:46;34.22;;;11.80;;
59950;SDS011;45812;53.540;9.774;2024-01-11T11:17:14;32.92;;;12.63;;
59950;SDS011;45812;53.540;9.774;2024-01-11T11:19:40;32.92;;;11.82;;
59950;SDS011;45812;53.540;9.774;2024-01-11T11:22:06;33.58;;;13.43;;
59950;SDS011;45812;53.540;9.774;2024-01-11T11:24:33;34.22;;;12.82;;
59950;SDS011;45812;53.540;9.774;2024-01-11T11:26:59;36.22;;;12.25;;
59950;SDS011;45812;53.540;9.774;2024-01-11T11:29:24;34.25;;;12.30;;
59950;SDS011;45812;53.540;9.774;2024-01-11T11:31:49;35.80;;;13.10;;
59950;SDS011;45812;53.540;9.774;2024-01-11T11:34:19;37.20;;;12.00;;
59950;SDS011;45812;53.540;9.774;2024-01-11T11:36:48;31.50;;;12.05;;
59950;SDS011;45812;53.540;9.774;2024-01-11T11:39:19;33.30;;;12.82;;
59950;SDS011;45812;53.540;9.774;2024-01-11T11:41:45;32.85;;;11.50;;
59950;SDS011;45812;53.540;9.774;2024-01-11T11:44:12;33.90;;;12.07;;
59950;SDS011;45812;53.540;9.774;2024-01-11T11:46:40;32.85;;;12.02;;
59950;SDS011;45812;53.540;9.774;2024-01-11T11:49:06;33.38;;;13.10;;
59950;SDS011;45812;53.540;9.774;2024-01-11T11:51:31;34.70;;;13.10;;
59950;SDS011;45812;53.540;9.774;2024-01-11T11:53:57;33.35;;;12.93;;
59950;SDS011;45812;53.540;9.774;2024-01-11T11:56:23;41.35;;;13.63;;
59950;SDS011;45812;53.540;9.774;2024-01-11T11:58:49;29.35;;;11.27;;
59950;SDS011;45812;53.540;9.774;2024-01-11T12:01:17;33.72;;;12.60;;
59950;SDS011;45812;53.540;9.774;2024-01-11T12:03:43;34.83;;;13.27;;
59950;SDS011;45812;53.540;9.774;2024-01-11T12:06:14;32.33;;;12.02;;
59950;SDS011;45812;53.540;9.774;2024-01-11T12:08:42;36.22;;;12.88;;
59950;SDS011;45812;53.540;9.774;2024-01-11T12:11:08;32.80;;;11.65;;
59950;SDS011;45812;53.540;9.774;2024-01-11T12:13:33;33.58;;;12.18;;
59950;SDS011;45812;53.540;9.774;2024-01-11T12:16:00;30.48;;;11.93;;
59950;SDS011;45812;53.540;9.774;2024-01-11T12:18:25;31.83;;;12.20;;
59950;SDS011;45812;53.540;9.774;2024-01-11T12:20:50;32.05;;;11.45;;
59950;SDS011;45812;53.540;9.774;2024-01-11T12:23:17;33.78;;;12.25;;
59950;SDS011;45812;53.540;9.774;2024-01-11T12:25:43;33.28;;;13.02;;
59950;SDS011;45812;53.540;9.774;2024-01-11T12:28:08;35.67;;;13.18;;
59950;SDS011;45812;53.540;9.774;2024-01-11T12:30:34;32.92;;;12.30;;
59950;SDS011;45812;53.540;9.774;2024-01-11T12:32:59;33.38;;;13.48;;
59950;SDS011;45812;53.540;9.774;2024-01-11T12:35:28;34.28;;;12.63;;
59950;SDS011;45812;53.540;9.774;2024-01-11T12:38:00;32.35;;;11.68;;
59950;SDS011;45812;53.540;9.774;2024-01-11T12:40:32;32.63;;;13.30;;
59950;SDS011;45812;53.540;9.774;2024-01-11T12:42:59;35.17;;;12.35;;
59950;SDS011;45812;53.540;9.774;2024-01-11T12:45:24;36.35;;;13.25;;
59950;SDS011;45812;53.540;9.774;2024-01-11T12:47:53;32.10;;;12.38;;
59950;SDS011;45812;53.540;9.774;2024-01-11T12:50:21;34.15;;;12.85;;
59950;SDS011;45812;53.540;9.774;2024-01-11T12:52:47;34.20;;;12.07;;
59950;SDS011;45812;53.540;9.774;2024-01-11T12:55:45;31.33;;;12.60;;
59950;SDS011;45812;53.540;9.774;2024-01-11T12:58:10;31.92;;;12.68;;
59950;SDS011;45812;53.540;9.774;2024-01-11T13:00:36;33.38;;;13.75;;
59950;SDS011;45812;53.540;9.774;2024-01-11T13:03:02;33.30;;;11.43;;
59950;SDS011;45812;53.540;9.774;2024-01-11T13:05:29;33.55;;;12.40;;
59950;SDS011;45812;53.540;9.774;2024-01-11T13:07:59;34.83;;;12.65;;
59950;SDS011;45812;53.540;9.774;2024-01-11T13:10:28;33.30;;;12.02;;
59950;SDS011;45812;53.540;9.774;2024-01-11T13:12:54;32.13;;;11.57;;
59950;SDS011;45812;53.540;9.774;2024-01-11T13:15:20;38.60;;;13.05;;
59950;SDS011;45812;53.540;9.774;2024-01-11T13:17:45;37.30;;;12.93;;
59950;SDS011;45812;53.540;9.774;2024-01-11T13:20:10;35.50;;;12.85;;
59950;SDS011;45812;53.540;9.774;2024-01-11T13:22:36;32.35;;;12.43;;
59950;SDS011;45812;53.540;9.774;2024-01-11T13:25:01;35.80;;;12.15;;
59950;SDS011;45812;53.540;9.774;2024-01-11T13:27:26;33.13;;;13.35;;
59950;SDS011;45812;53.540;9.774;2024-01-11T13:29:51;37.70;;;12.85;;
59950;SDS011;45812;53.540;9.774;2024-01-11T13:32:17;33.97;;;12.40;;
59950;SDS011;45812;53.540;9.774;2024-01-11T13:34:42;37.80;;;12.68;;
59950;SDS011;45812;53.540;9.774;2024-01-11T13:37:08;34.95;;;12.10;;
59950;SDS011;45812;53.540;9.774;2024-01-11T13:39:33;34.03;;;11.25;;
59950;SDS011;45812;53.540;9.774;2024-01-11T13:41:58;32.15;;;12.60;;
59950;SDS011;45812;53.540;9.774;2024-01-11T13:44:23;31.92;;;12.98;;
59950;SDS011;45812;53.540;9.774;2024-01-11T13:46:48;33.80;;;11.85;;
59950;SDS011;45812;53.540;9.774;2024-01-11T13:49:14;32.08;;;11.82;;
59950;SDS011;45812;53.540;9.774;2024-01-11T13:51:39;33.20;;;12.60;;
59950;SDS011;45812;53.540;9.774;2024-01-11T13:54:04;34.03;;;11.98;;
59950;SDS011;45812;53.540;9.774;2024-01-11T13:56:30;33.58;;;11.68;;
59950;SDS011;45812;53.540;9.774;2024-01-11T13:58:55;36.60;;;12.13;;
59950;SDS011;45812;53.540;9.774;2024-01-11T14:01:21;34.00;;;12.60;;
59950;SDS011;45812;53.540;9.774;2024-01-11T14:03:46;35.90;;;12.25;;
59950;SDS011;45812;53.540;9.774;2024-01-11T14:06:11;28.17;;;11.20;;
59950;SDS011;45812;53.540;9.774;2024-01-11T14:08:37;37.38;;;11.77;;
59950;SDS011;45812;53.540;9.774;2024-01-11T14:11:03;34.85;;;12.32;;
59950;SDS011;45812;53.540;9.774;2024-01-11T14:13:29;33.08;;;12.02;;
59950;SDS011;45812;53.540;9.774;2024-01-11T14:15:54;32.17;;;12.45;;
59950;SDS011;45812;53.540;9.774;2024-01-11T14:18:20;33.45;;;12.30;;